createdAt,value
2018-01-29T00:00:50.074Z,77.94
2018-01-29T00:01:50.042Z,77.84
2018-01-29T00:02:50.013Z,77.84
2018-01-29T00:03:49.988Z,77.08
2018-01-29T00:04:49.960Z,77.26
2018-01-29T00:05:49.932Z,78.94
2018-01-29T00:06:49.905Z,79.52
2018-01-29T00:07:49.878Z,80.09
2018-01-29T00:08:49.863Z,80.76
2018-01-29T00:09:49.825Z,79.36
2018-01-29T00:10:49.798Z,79.08
2018-01-29T00:11:49.768Z,79.17
2018-01-29T00:12:49.746Z,78.13
2018-01-29T00:13:49.729Z,79.52
2018-01-29T00:14:49.688Z,79.61
2018-01-29T00:15:49.664Z,79.08
2018-01-29T00:16:49.631Z,79.71
2018-01-29T00:17:49.606Z,79.80
2018-01-29T00:18:49.580Z,79.80
2018-01-29T00:19:49.547Z,78.79
2018-01-29T00:20:49.529Z,79.23
2018-01-29T00:21:49.498Z,80.09
2018-01-29T00:22:49.475Z,80.47
2018-01-29T00:23:49.446Z,79.56
2018-01-29T00:24:49.415Z,78.51
2018-01-29T00:25:49.390Z,78.99
2018-01-29T00:26:49.361Z,79.33
2018-01-29T00:27:49.332Z,79.46
2018-01-29T00:28:49.308Z,77.55
2018-01-29T00:29:49.277Z,76.54
2018-01-29T00:30:49.248Z,77.26
2018-01-29T00:31:49.225Z,77.36
2018-01-29T00:32:49.196Z,76.35
2018-01-29T00:33:49.163Z,77.55
2018-01-29T00:34:49.141Z,76.45
2018-01-29T00:35:49.114Z,77.08
2018-01-29T00:36:49.083Z,77.65
2018-01-29T00:37:49.065Z,78.41
2018-01-29T00:38:49.031Z,76.98
2018-01-29T00:39:49.006Z,77.26
2018-01-29T00:40:48.977Z,78.85
2018-01-29T00:41:48.951Z,79.90
2018-01-29T00:42:48.918Z,80.28
2018-01-29T00:43:48.894Z,79.61
2018-01-29T00:44:48.866Z,78.89
2018-01-29T00:45:48.835Z,77.94
2018-01-29T00:46:48.813Z,76.54
2018-01-29T00:47:48.783Z,75.87
2018-01-29T00:48:48.755Z,76.88
2018-01-29T00:49:48.729Z,78.70
2018-01-29T00:50:48.702Z,78.13
2018-01-29T00:51:48.673Z,77.65
2018-01-29T00:52:48.651Z,77.17
2018-01-29T00:53:48.621Z,77.45
2018-01-29T00:54:48.596Z,77.17
2018-01-29T00:55:48.566Z,76.69
2018-01-29T00:56:48.537Z,75.96
2018-01-29T00:57:48.507Z,76.98
2018-01-29T00:58:48.481Z,77.17
2018-01-29T00:59:48.455Z,77.84
2018-01-29T01:00:48.428Z,76.98
2018-01-29T01:01:48.399Z,75.39
2018-01-29T01:02:48.379Z,76.50
2018-01-29T01:03:48.346Z,75.49
2018-01-29T01:04:48.317Z,74.91
2018-01-29T01:05:48.295Z,75.20
2018-01-29T01:06:48.264Z,74.69
2018-01-29T01:07:48.237Z,77.65
2018-01-29T01:08:48.218Z,77.26
2018-01-29T01:09:48.185Z,77.26
2018-01-29T01:10:48.155Z,76.88
2018-01-29T01:11:48.130Z,76.31
2018-01-29T01:12:48.098Z,76.40
2018-01-29T01:13:48.070Z,76.03
2018-01-29T01:14:48.045Z,76.54
2018-01-29T01:15:48.014Z,74.91
2018-01-29T01:16:47.989Z,75.01
2018-01-29T01:17:47.962Z,77.08
2018-01-29T01:18:47.933Z,77.99
2018-01-29T01:19:47.905Z,79.23
2018-01-29T01:20:47.878Z,77.84
2018-01-29T01:21:47.851Z,76.60
2018-01-29T01:22:47.829Z,75.83
2018-01-29T01:23:47.799Z,75.49
2018-01-29T01:24:47.771Z,75.93
2018-01-29T01:25:47.738Z,77.80
2018-01-29T01:26:47.715Z,77.26
2018-01-29T01:27:47.685Z,78.09
2018-01-29T01:28:47.653Z,78.56
2018-01-29T01:29:47.635Z,78.66
2018-01-29T01:30:47.607Z,78.37
2018-01-29T01:31:47.572Z,79.61
2018-01-29T01:32:47.546Z,80.85
2018-01-29T01:33:47.523Z,80.19
2018-01-29T01:34:47.497Z,79.04
2018-01-29T01:35:47.468Z,79.61
2018-01-29T01:36:47.437Z,79.33
2018-01-29T01:37:47.410Z,78.56
2018-01-29T01:38:47.384Z,76.98
2018-01-29T01:39:47.358Z,78.94
2018-01-29T01:40:47.323Z,80.09
2018-01-29T01:41:47.303Z,80.09
2018-01-29T01:42:47.269Z,79.61
2018-01-29T01:43:47.254Z,80.66
2018-01-29T01:44:47.218Z,80.19
2018-01-29T01:45:47.186Z,79.04
2018-01-29T01:46:47.159Z,79.43
2018-01-29T01:47:47.137Z,79.99
2018-01-29T01:48:47.126Z,78.18
2018-01-29T01:49:47.079Z,77.36
2018-01-29T01:50:47.053Z,77.36
2018-01-29T01:51:47.019Z,77.55
2018-01-29T01:52:46.992Z,78.41
2018-01-29T01:53:46.985Z,76.98
2018-01-29T01:54:46.941Z,76.50
2018-01-29T01:55:46.909Z,77.17
2018-01-29T01:56:46.895Z,77.08
2018-01-29T01:57:46.859Z,76.50
2018-01-29T01:58:46.831Z,77.08
2018-01-29T01:59:46.808Z,78.75
2018-01-29T02:00:46.777Z,80.09
2018-01-29T02:01:46.747Z,78.85
2018-01-29T02:02:46.727Z,77.26
2018-01-29T02:03:46.689Z,77.17
2018-01-29T02:04:46.666Z,78.18
2018-01-29T02:05:46.647Z,78.66
2018-01-29T02:06:46.617Z,78.75
2018-01-29T02:07:46.581Z,79.04
2018-01-29T02:08:46.555Z,77.99
2018-01-29T02:09:46.529Z,78.85
2018-01-29T02:10:46.498Z,78.18
2018-01-29T02:11:46.478Z,79.04
2018-01-29T02:12:46.444Z,79.99
2018-01-29T02:13:46.420Z,80.09
2018-01-29T02:14:46.390Z,80.72
2018-01-29T02:15:46.362Z,80.09
2018-01-29T02:16:46.336Z,78.37
2018-01-29T02:17:46.307Z,78.56
2018-01-29T02:18:46.278Z,79.99
2018-01-29T02:19:46.254Z,79.43
2018-01-29T02:20:46.228Z,78.85
2018-01-29T02:21:46.196Z,79.43
2018-01-29T02:22:46.171Z,79.99
2018-01-29T02:23:46.146Z,79.33
2018-01-29T02:24:46.114Z,79.52
2018-01-29T02:25:46.090Z,80.09
2018-01-29T02:26:46.073Z,79.43
2018-01-29T02:27:46.033Z,80.33
2018-01-29T02:28:46.004Z,80.09
2018-01-29T02:29:46.001Z,78.47
2018-01-29T02:30:45.954Z,79.52
2018-01-29T02:31:45.918Z,79.99
2018-01-29T02:32:45.896Z,79.43
2018-01-29T02:33:45.874Z,79.52
2018-01-29T02:34:45.840Z,78.85
2018-01-29T02:35:45.813Z,79.90
2018-01-29T02:36:45.785Z,80.62
2018-01-29T02:37:45.760Z,81.67
2018-01-29T02:38:45.732Z,81.48
2018-01-29T02:39:45.696Z,81.38
2018-01-29T02:40:45.674Z,81.20
2018-01-29T02:41:45.648Z,80.28
2018-01-29T02:42:45.620Z,80.53
2018-01-29T02:43:45.593Z,81.29
2018-01-29T02:44:45.563Z,80.81
2018-01-29T02:45:45.536Z,81.10
2018-01-29T02:46:45.511Z,81.58
2018-01-29T02:47:45.486Z,81.67
2018-01-29T02:48:45.446Z,81.29
2018-01-29T02:49:45.471Z,81.77
2018-01-29T02:50:45.406Z,81.29
2018-01-29T02:51:45.368Z,80.09
2018-01-29T02:52:45.338Z,78.28
2018-01-29T02:53:45.316Z,76.94
2018-01-29T02:54:45.285Z,77.80
2018-01-29T02:55:45.258Z,80.09
2018-01-29T02:56:45.231Z,81.48
2018-01-29T02:57:45.198Z,81.29
2018-01-29T02:58:45.174Z,81.10
2018-01-29T02:59:45.140Z,80.05
2018-01-29T03:00:45.114Z,79.77
2018-01-29T03:01:45.088Z,80.72
2018-01-29T03:02:45.067Z,81.38
2018-01-29T03:03:45.032Z,81.20
2018-01-29T03:04:45.007Z,81.01
2018-01-29T03:05:44.980Z,80.53
2018-01-29T03:06:44.949Z,79.71
2018-01-29T03:07:44.925Z,78.94
2018-01-29T03:08:44.897Z,77.32
2018-01-29T03:09:44.864Z,77.13
2018-01-29T03:10:44.854Z,78.37
2018-01-29T03:11:44.809Z,78.28
2018-01-29T03:12:44.784Z,79.86
2018-01-29T03:13:44.757Z,80.81
2018-01-29T03:14:44.731Z,81.86
2018-01-29T03:15:44.697Z,80.43
2018-01-29T03:16:44.671Z,81.38
2018-01-29T03:17:44.644Z,81.10
2018-01-29T03:18:44.618Z,79.99
2018-01-29T03:19:44.585Z,80.33
2018-01-29T03:20:44.563Z,81.20
2018-01-29T03:21:44.535Z,80.72
2018-01-29T03:22:44.511Z,81.29
2018-01-29T03:23:44.477Z,79.80
2018-01-29T03:24:44.450Z,79.80
2018-01-29T03:25:44.423Z,80.72
2018-01-29T03:26:44.398Z,79.90
2018-01-29T03:27:44.365Z,79.04
2018-01-29T03:28:44.339Z,80.81
2018-01-29T03:29:44.314Z,80.62
2018-01-29T03:30:44.290Z,80.62
2018-01-29T03:31:44.258Z,79.99
2018-01-29T03:32:44.227Z,79.61
2018-01-29T03:33:44.199Z,80.62
2018-01-29T03:34:44.178Z,80.72
2018-01-29T03:35:44.144Z,79.77
2018-01-29T03:36:44.121Z,81.10
2018-01-29T03:37:44.090Z,82.59
2018-01-29T03:38:44.061Z,81.96
2018-01-29T03:39:44.033Z,82.34
2018-01-29T03:40:44.008Z,82.15
2018-01-29T03:41:43.979Z,81.96
2018-01-29T03:42:43.950Z,81.10
2018-01-29T03:43:43.922Z,80.43
2018-01-29T03:44:43.895Z,79.90
2018-01-29T03:45:43.860Z,80.43
2018-01-29T03:46:43.840Z,81.48
2018-01-29T03:47:43.812Z,81.86
2018-01-29T03:48:43.784Z,82.68
2018-01-29T03:49:43.757Z,83.35
2018-01-29T03:50:43.722Z,83.25
2018-01-29T03:51:43.700Z,81.38
2018-01-29T03:52:43.675Z,80.53
2018-01-29T03:53:43.641Z,80.15
2018-01-29T03:54:43.612Z,81.48
2018-01-29T03:55:43.584Z,82.15
2018-01-29T03:56:43.560Z,81.20
2018-01-29T03:57:43.527Z,81.48
2018-01-29T03:58:43.505Z,81.86
2018-01-29T03:59:43.472Z,81.58
2018-01-29T04:00:43.446Z,82.87
2018-01-29T04:01:43.417Z,83.35
2018-01-29T04:02:43.388Z,82.68
2018-01-29T04:03:43.362Z,82.34
2018-01-29T04:04:43.333Z,81.38
2018-01-29T04:05:43.307Z,80.66
2018-01-29T04:06:43.282Z,79.23
2018-01-29T04:07:43.247Z,79.23
2018-01-29T04:08:43.224Z,79.33
2018-01-29T04:09:43.197Z,78.85
2018-01-29T04:10:43.165Z,79.33
2018-01-29T04:11:43.141Z,79.04
2018-01-29T04:12:43.130Z,78.28
2018-01-29T04:13:43.084Z,77.61
2018-01-29T04:14:43.056Z,78.28
2018-01-29T04:15:43.029Z,78.09
2018-01-29T04:16:43.001Z,78.66
2018-01-29T04:17:42.971Z,79.96
2018-01-29T04:18:42.946Z,80.15
2018-01-29T04:19:42.915Z,80.62
2018-01-29T04:20:42.883Z,78.66
2018-01-29T04:21:42.860Z,79.14
2018-01-29T04:22:42.830Z,77.80
2018-01-29T04:23:42.803Z,76.65
2018-01-29T04:24:42.776Z,78.28
2018-01-29T04:25:42.748Z,78.75
2018-01-29T04:26:42.718Z,79.23
2018-01-29T04:27:42.699Z,77.51
2018-01-29T04:28:42.665Z,77.13
2018-01-29T04:29:42.637Z,77.32
2018-01-29T04:30:42.607Z,76.31
2018-01-29T04:31:42.582Z,77.80
2018-01-29T04:32:42.554Z,79.04
2018-01-29T04:33:42.534Z,79.38
2018-01-29T04:34:42.512Z,79.57
2018-01-29T04:35:42.470Z,80.53
2018-01-29T04:36:42.443Z,78.85
2018-01-29T04:37:42.415Z,80.05
2018-01-29T04:38:42.387Z,80.72
2018-01-29T04:39:42.356Z,79.77
2018-01-29T04:40:42.336Z,80.53
2018-01-29T04:41:42.304Z,81.29
2018-01-29T04:42:42.295Z,80.53
2018-01-29T04:43:42.263Z,81.01
2018-01-29T04:44:42.222Z,80.33
2018-01-29T04:45:42.192Z,79.61
2018-01-29T04:46:42.166Z,78.47
2018-01-29T04:47:42.132Z,79.67
2018-01-29T04:48:42.125Z,79.86
2018-01-29T04:49:42.080Z,80.15
2018-01-29T04:50:42.054Z,81.44
2018-01-29T04:51:42.021Z,81.20
2018-01-29T04:52:41.995Z,81.29
2018-01-29T04:53:41.967Z,81.29
2018-01-29T04:54:41.940Z,81.38
2018-01-29T04:55:41.910Z,80.91
2018-01-29T04:56:41.881Z,81.20
2018-01-29T04:57:41.860Z,80.53
2018-01-29T04:58:41.830Z,80.62
2018-01-29T04:59:41.798Z,81.38
2018-01-29T05:00:41.772Z,81.63
2018-01-29T05:01:41.744Z,81.82
2018-01-29T05:02:41.715Z,81.38
2018-01-29T05:03:41.688Z,79.86
2018-01-29T05:04:41.661Z,80.62
2018-01-29T05:05:41.636Z,79.77
2018-01-29T05:06:41.602Z,80.72
2018-01-29T05:07:41.576Z,80.62
2018-01-29T05:08:41.545Z,81.20
2018-01-29T05:09:41.523Z,80.53
2018-01-29T05:10:41.492Z,81.20
2018-01-29T05:11:41.464Z,81.54
2018-01-29T05:12:41.436Z,82.11
2018-01-29T05:13:41.410Z,82.40
2018-01-29T05:14:41.381Z,83.06
2018-01-29T05:15:41.352Z,82.20
2018-01-29T05:16:41.327Z,81.82
2018-01-29T05:17:41.297Z,81.29
2018-01-29T05:18:41.269Z,80.81
2018-01-29T05:19:41.241Z,81.29
2018-01-29T05:20:41.214Z,81.20
2018-01-29T05:21:41.184Z,80.15
2018-01-29T05:22:41.157Z,79.86
2018-01-29T05:23:41.130Z,81.20
2018-01-29T05:24:41.127Z,81.92
2018-01-29T05:25:41.073Z,80.43
2018-01-29T05:26:41.045Z,81.29
2018-01-29T05:27:41.016Z,81.38
2018-01-29T05:28:40.990Z,81.48
2018-01-29T05:29:40.960Z,81.10
2018-01-29T05:30:40.935Z,82.11
2018-01-29T05:31:40.905Z,82.30
2018-01-29T05:32:40.877Z,83.44
2018-01-29T05:33:40.852Z,82.97
2018-01-29T05:34:40.821Z,82.49
2018-01-29T05:35:40.793Z,82.20
2018-01-29T05:36:40.766Z,81.58
2018-01-29T05:37:40.738Z,80.53
2018-01-29T05:38:40.710Z,80.53
2018-01-29T05:39:40.684Z,80.53
2018-01-29T05:40:40.656Z,80.62
2018-01-29T05:41:40.626Z,80.33
2018-01-29T05:42:40.603Z,81.38
2018-01-29T05:43:40.574Z,79.96
2018-01-29T05:44:40.544Z,79.48
2018-01-29T05:45:40.511Z,81.54
2018-01-29T05:46:40.489Z,81.29
2018-01-29T05:47:40.454Z,81.92
2018-01-29T05:48:40.429Z,81.92
2018-01-29T05:49:40.405Z,81.54
2018-01-29T05:50:40.374Z,81.92
2018-01-29T05:51:40.344Z,82.68
2018-01-29T05:52:40.313Z,82.49
2018-01-29T05:53:40.307Z,80.91
2018-01-29T05:54:40.261Z,81.82
2018-01-29T05:55:40.238Z,82.40
2018-01-29T05:56:40.218Z,82.78
2018-01-29T05:57:40.229Z,82.68
2018-01-29T05:58:40.143Z,83.44
2018-01-29T05:59:40.123Z,83.06
2018-01-29T06:00:40.093Z,82.49
2018-01-29T06:01:40.064Z,82.49
2018-01-29T06:02:40.040Z,82.11
2018-01-29T06:03:40.009Z,80.87
2018-01-29T06:04:39.979Z,81.63
2018-01-29T06:05:39.961Z,81.63
2018-01-29T06:06:40.070Z,82.30
2018-01-29T06:07:39.897Z,82.20
2018-01-29T06:08:39.869Z,82.30
2018-01-29T06:09:39.853Z,82.97
2018-01-29T06:10:39.869Z,82.40
2018-01-29T06:11:39.793Z,82.01
2018-01-29T06:12:39.757Z,82.49
2018-01-29T06:13:39.728Z,82.01
2018-01-29T06:14:39.703Z,82.40
2018-01-29T06:15:39.672Z,82.20
2018-01-29T06:16:39.643Z,82.68
2018-01-29T06:17:39.628Z,82.01
2018-01-29T06:18:39.588Z,82.01
2018-01-29T06:19:39.558Z,81.38
2018-01-29T06:20:39.532Z,80.72
2018-01-29T06:21:39.509Z,80.05
2018-01-29T06:22:39.474Z,80.33
2018-01-29T06:23:39.449Z,79.86
2018-01-29T06:24:39.419Z,81.06
2018-01-29T06:25:39.394Z,82.01
2018-01-29T06:26:39.361Z,81.82
2018-01-29T06:27:39.333Z,82.01
2018-01-29T06:28:39.304Z,81.25
2018-01-29T06:29:39.281Z,82.01
2018-01-29T06:30:39.247Z,81.44
2018-01-29T06:31:39.220Z,81.63
2018-01-29T06:32:39.195Z,79.38
2018-01-29T06:33:39.174Z,77.89
2018-01-29T06:34:39.138Z,77.23
2018-01-29T06:35:39.109Z,79.48
2018-01-29T06:36:39.088Z,79.10
2018-01-29T06:37:39.055Z,80.33
2018-01-29T06:38:39.028Z,79.86
2018-01-29T06:39:38.998Z,78.81
2018-01-29T06:40:38.971Z,78.43
2018-01-29T06:41:38.942Z,79.67
2018-01-29T06:42:38.913Z,79.57
2018-01-29T06:43:38.887Z,79.86
2018-01-29T06:44:38.860Z,81.06
2018-01-29T06:45:38.834Z,81.63
2018-01-29T06:46:38.800Z,81.25
2018-01-29T06:47:38.774Z,81.06
2018-01-29T06:48:38.749Z,81.63
2018-01-29T06:49:38.718Z,81.73
2018-01-29T06:50:38.703Z,81.92
2018-01-29T06:51:38.667Z,81.82
2018-01-29T06:52:38.638Z,81.44
2018-01-29T06:53:38.609Z,79.96
2018-01-29T06:54:38.580Z,80.43
2018-01-29T06:55:38.549Z,80.15
2018-01-29T06:56:38.522Z,81.29
2018-01-29T06:57:38.497Z,81.10
2018-01-29T06:58:38.469Z,79.86
2018-01-29T06:59:38.443Z,79.10
2018-01-29T07:00:38.418Z,79.77
2018-01-29T07:01:38.378Z,81.82
2018-01-29T07:02:38.371Z,81.54
2018-01-29T07:03:38.333Z,81.54
2018-01-29T07:04:38.301Z,81.10
2018-01-29T07:05:38.271Z,79.96
2018-01-29T07:06:38.242Z,79.96
2018-01-29T07:07:38.212Z,81.35
2018-01-29T07:08:38.188Z,81.82
2018-01-29T07:09:38.168Z,80.72
2018-01-29T07:10:38.130Z,81.54
2018-01-29T07:11:38.098Z,81.63
2018-01-29T07:12:38.076Z,81.63
2018-01-29T07:13:38.054Z,81.10
2018-01-29T07:14:38.037Z,81.63
2018-01-29T07:15:37.988Z,82.01
2018-01-29T07:16:37.962Z,82.20
2018-01-29T07:17:37.935Z,83.25
2018-01-29T07:18:37.908Z,83.54
2018-01-29T07:19:37.881Z,81.20
2018-01-29T07:20:37.856Z,80.05
2018-01-29T07:21:37.823Z,80.33
2018-01-29T07:22:37.798Z,80.72
2018-01-29T07:23:37.781Z,81.06
2018-01-29T07:24:37.737Z,82.01
2018-01-29T07:25:37.715Z,81.73
2018-01-29T07:26:37.682Z,81.73
2018-01-29T07:27:37.702Z,81.92
2018-01-29T07:28:37.624Z,82.49
2018-01-29T07:29:37.608Z,81.82
2018-01-29T07:30:37.569Z,81.38
2018-01-29T07:31:37.563Z,82.01
2018-01-29T07:32:37.511Z,82.68
2018-01-29T07:33:37.484Z,81.96
2018-01-29T07:34:37.465Z,79.96
2018-01-29T07:35:37.428Z,79.86
2018-01-29T07:36:37.400Z,80.05
2018-01-29T07:37:37.370Z,78.37
2018-01-29T07:38:37.362Z,77.80
2018-01-29T07:39:37.317Z,79.10
2018-01-29T07:40:37.291Z,79.00
2018-01-29T07:41:37.259Z,80.62
2018-01-29T07:42:37.233Z,80.81
2018-01-29T07:43:37.203Z,81.38
2018-01-29T07:44:39.891Z,80.81
2018-01-29T07:45:37.146Z,80.62
2018-01-29T07:46:37.123Z,79.96
2018-01-29T07:47:37.091Z,79.48
2018-01-29T07:48:37.065Z,80.05
2018-01-29T07:49:37.056Z,79.96
2018-01-29T07:50:37.016Z,79.38
2018-01-29T07:51:36.978Z,79.38
2018-01-29T07:52:36.955Z,78.52
2018-01-29T07:53:36.925Z,78.81
2018-01-29T07:54:36.904Z,80.05
2018-01-29T07:55:36.871Z,79.96
2018-01-29T07:56:36.840Z,78.37
2018-01-29T07:57:36.817Z,76.94
2018-01-29T07:58:36.785Z,78.75
2018-01-29T07:59:36.755Z,78.62
2018-01-29T08:00:36.737Z,78.62
2018-01-29T08:01:36.702Z,78.62
2018-01-29T08:02:36.678Z,78.43
2018-01-29T08:03:36.650Z,79.48
2018-01-29T08:04:36.619Z,80.05
2018-01-29T08:05:36.625Z,79.04
2018-01-29T08:06:36.561Z,80.05
2018-01-29T08:07:36.533Z,80.62
2018-01-29T08:08:36.510Z,79.52
2018-01-29T08:09:36.480Z,78.56
2018-01-29T08:10:36.452Z,79.38
2018-01-29T08:11:36.427Z,78.28
2018-01-29T08:12:36.393Z,77.70
2018-01-29T08:13:36.370Z,78.75
2018-01-29T08:14:36.343Z,79.67
2018-01-29T08:15:36.312Z,78.94
2018-01-29T08:16:36.282Z,78.94
2018-01-29T08:17:36.261Z,78.37
2018-01-29T08:18:36.235Z,79.57
2018-01-29T08:19:36.212Z,79.57
2018-01-29T08:20:36.177Z,79.96
2018-01-29T08:21:36.157Z,79.48
2018-01-29T08:22:36.121Z,78.94
2018-01-29T08:23:36.095Z,80.24
2018-01-29T08:24:36.066Z,80.81
2018-01-29T08:25:36.033Z,80.43
2018-01-29T08:26:36.013Z,79.67
2018-01-29T08:27:35.978Z,79.77
2018-01-29T08:28:35.969Z,79.77
2018-01-29T08:29:35.928Z,79.23
2018-01-29T08:30:35.893Z,79.80
2018-01-29T08:31:35.871Z,79.86
2018-01-29T08:32:35.842Z,80.05
2018-01-29T08:33:35.809Z,80.53
2018-01-29T08:34:35.788Z,80.72
2018-01-29T08:35:35.758Z,81.29
2018-01-29T08:36:35.727Z,81.38
2018-01-29T08:37:35.701Z,80.81
2018-01-29T08:38:35.676Z,81.29
2018-01-29T08:39:35.648Z,80.72
2018-01-29T08:40:35.624Z,79.86
2018-01-29T08:41:35.589Z,80.53
2018-01-29T08:42:35.582Z,81.01
2018-01-29T08:43:35.541Z,81.54
2018-01-29T08:44:35.501Z,81.48
2018-01-29T08:45:35.476Z,81.20
2018-01-29T08:46:35.456Z,81.92
2018-01-29T08:47:35.416Z,82.20
2018-01-29T08:48:35.405Z,82.20
2018-01-29T08:49:35.367Z,81.82
2018-01-29T08:50:35.335Z,81.67
2018-01-29T08:51:35.320Z,82.11
2018-01-29T08:52:35.406Z,81.48
2018-01-29T08:53:35.251Z,81.58
2018-01-29T08:54:35.245Z,82.06
2018-01-29T08:55:35.254Z,81.20
2018-01-29T08:56:35.165Z,81.20
2018-01-29T08:57:35.165Z,81.38
2018-01-29T08:58:35.114Z,81.29
2018-01-29T08:59:35.085Z,81.67
2018-01-29T09:00:35.069Z,81.29
2018-01-29T09:01:35.034Z,79.77
2018-01-29T09:02:35.001Z,81.38
2018-01-29T09:03:34.973Z,81.67
2018-01-29T09:04:34.944Z,80.62
2018-01-29T09:05:34.916Z,79.96
2018-01-29T09:06:34.888Z,80.05
2018-01-29T09:07:34.866Z,79.86
2018-01-29T09:08:34.833Z,79.14
2018-01-29T09:09:34.828Z,78.09
2018-01-29T09:10:34.778Z,79.00
2018-01-29T09:11:34.768Z,79.04
2018-01-29T09:12:34.721Z,79.14
2018-01-29T09:13:34.694Z,78.28
2018-01-29T09:14:34.667Z,79.04
2018-01-29T09:15:34.642Z,78.09
2018-01-29T09:16:34.609Z,78.37
2018-01-29T09:17:34.603Z,78.94
2018-01-29T09:18:34.555Z,79.38
2018-01-29T09:19:34.526Z,79.96
2018-01-29T09:20:34.610Z,79.61
2018-01-29T09:21:34.474Z,78.75
2018-01-29T09:22:34.455Z,78.66
2018-01-29T09:23:34.429Z,78.94
2018-01-29T09:24:34.394Z,80.05
2018-01-29T09:25:34.361Z,79.96
2018-01-29T09:43:53.972Z,78.94
2018-01-29T09:44:53.976Z,77.99
2018-01-29T09:46:47.271Z,75.93
2018-01-29T09:47:47.163Z,76.31
2018-01-29T09:48:47.244Z,76.40
2018-01-29T09:49:47.105Z,76.98
2018-01-29T09:50:47.069Z,76.50
2018-01-29T09:51:47.043Z,76.40
2018-01-29T09:52:47.018Z,76.31
2018-01-29T09:53:47.077Z,75.35
2018-01-29T09:54:46.965Z,75.16
2018-01-29T09:55:46.924Z,74.88
2018-01-29T09:56:46.899Z,75.01
2018-01-29T09:57:47.922Z,75.01
2018-01-29T09:58:46.838Z,75.74
2018-01-29T09:59:47.842Z,75.74
2018-01-29T10:00:46.782Z,76.03
2018-01-29T10:01:46.823Z,77.17
2018-01-29T10:02:46.734Z,76.98
2018-01-29T10:03:47.781Z,76.98
2018-01-29T10:04:46.669Z,77.26
2018-01-29T10:05:46.756Z,75.93
2018-01-29T10:06:46.604Z,75.20
2018-01-29T10:07:46.662Z,76.21
2018-01-29T10:08:46.548Z,76.40
2018-01-29T10:09:46.573Z,74.78
2018-01-29T10:10:46.499Z,75.16
2018-01-29T10:11:46.485Z,74.98
2018-01-29T10:12:46.440Z,75.26
2018-01-29T10:13:46.406Z,76.50
2018-01-29T10:14:46.381Z,75.83
2018-01-29T10:15:46.349Z,74.88
2018-01-29T10:16:46.343Z,75.35
2018-01-29T10:17:46.296Z,76.50
2018-01-29T10:18:46.363Z,76.98
2018-01-29T10:19:46.233Z,76.98
2018-01-29T10:20:46.213Z,76.40
2018-01-29T10:21:46.230Z,75.74
2018-01-29T10:22:46.151Z,75.35
2018-01-29T10:23:47.178Z,75.35
2018-01-29T10:24:46.092Z,75.45
2018-01-29T10:25:46.168Z,75.64
2018-01-29T10:26:46.052Z,75.35
2018-01-29T10:27:46.080Z,75.07
2018-01-29T10:28:45.985Z,75.16
2018-01-29T10:29:45.989Z,76.31
2018-01-29T10:30:45.917Z,76.98
2018-01-29T10:31:46.002Z,76.31
2018-01-29T10:32:45.866Z,74.88
2018-01-29T10:33:45.912Z,76.50
2018-01-29T10:34:45.805Z,77.23
2018-01-29T10:35:45.775Z,78.28
2018-01-29T10:36:45.831Z,77.99
2018-01-29T10:37:45.715Z,78.28
2018-01-29T10:38:45.743Z,77.03
2018-01-29T10:39:45.677Z,76.94
2018-01-29T10:40:45.658Z,77.42
2018-01-29T10:41:45.601Z,77.13
2018-01-29T10:42:45.683Z,77.51
2018-01-29T10:43:45.550Z,78.28
2018-01-29T10:44:45.580Z,77.99
2018-01-29T10:45:45.487Z,76.98
2018-01-29T10:46:45.493Z,76.46
2018-01-29T10:47:45.430Z,76.56
2018-01-29T10:48:45.502Z,76.88
2018-01-29T10:49:45.370Z,76.69
2018-01-29T10:50:45.419Z,75.83
2018-01-29T10:51:45.319Z,75.39
2018-01-29T10:52:45.324Z,74.34
2018-01-29T10:53:45.249Z,74.88
2018-01-29T10:54:45.243Z,75.64
2018-01-29T10:55:45.202Z,75.35
2018-01-29T10:56:45.250Z,76.03
2018-01-29T10:57:45.169Z,77.23
2018-01-29T10:58:45.182Z,78.18
2018-01-29T10:59:45.084Z,77.42
2018-01-29T11:00:45.091Z,77.03
2018-01-29T11:01:45.021Z,77.03
2018-01-29T11:02:45.091Z,77.23
2018-01-29T11:03:44.962Z,77.61
2018-01-29T11:04:45.003Z,77.13
2018-01-29T11:05:44.906Z,77.70
2018-01-29T11:06:44.911Z,77.61
2018-01-29T11:07:44.848Z,77.13
2018-01-29T11:08:44.922Z,77.13
2018-01-29T11:09:44.807Z,77.89
2018-01-29T11:10:44.757Z,77.61
2018-01-29T11:11:44.840Z,77.61
2018-01-29T11:12:44.706Z,77.80
2018-01-29T11:13:44.755Z,77.23
2018-01-29T11:14:44.638Z,77.51
2018-01-29T11:15:44.620Z,77.61
2018-01-29T11:16:44.667Z,77.70
2018-01-29T11:17:44.553Z,78.18
2018-01-29T11:18:45.606Z,77.61
2018-01-29T11:19:44.498Z,77.23
2018-01-29T11:20:44.486Z,77.99
2018-01-29T11:21:44.449Z,77.89
2018-01-29T11:22:44.413Z,77.80
2018-01-29T11:23:44.381Z,77.32
2018-01-29T11:24:44.419Z,77.32
2018-01-29T11:25:44.327Z,76.94
2018-01-29T11:26:44.296Z,77.70
2018-01-29T11:27:44.265Z,77.32
2018-01-29T11:28:45.263Z,77.23
2018-01-29T11:29:44.208Z,77.23
2018-01-29T11:30:44.175Z,76.84
2018-01-29T11:31:44.151Z,76.94
2018-01-29T11:32:44.129Z,76.94
2018-01-29T11:33:44.097Z,76.18
2018-01-29T11:34:44.061Z,76.46
2018-01-29T11:35:45.111Z,76.84
2018-01-29T11:36:44.003Z,76.94
2018-01-29T11:37:43.997Z,76.46
2018-01-29T11:38:43.943Z,76.46
2018-01-29T11:39:44.013Z,76.56
2018-01-29T11:40:43.888Z,76.94
2018-01-29T11:41:43.880Z,76.84
2018-01-29T11:42:43.830Z,76.84
2018-01-29T11:43:43.802Z,76.46
2018-01-29T11:44:43.776Z,76.84
2018-01-29T11:45:43.742Z,76.37
2018-01-29T11:46:43.750Z,76.37
2018-01-29T11:47:43.686Z,76.37
2018-01-29T11:48:43.765Z,76.08
2018-01-29T11:49:43.625Z,76.46
2018-01-29T11:50:43.599Z,76.18
2018-01-29T11:51:43.682Z,75.79
2018-01-29T11:52:43.545Z,75.54
2018-01-29T11:53:43.514Z,74.88
2018-01-29T11:54:43.477Z,74.88
2018-01-29T11:55:43.460Z,75.03
2018-01-29T11:56:43.421Z,75.32
2018-01-29T11:57:43.413Z,74.78
2018-01-29T11:58:43.365Z,74.69
2018-01-29T11:59:43.336Z,73.54
2018-01-29T12:00:43.349Z,74.30
2018-01-29T12:01:43.279Z,75.07
2018-01-29T12:02:43.347Z,75.51
2018-01-29T12:03:43.229Z,75.79
2018-01-29T12:04:43.191Z,76.37
2018-01-29T12:05:43.206Z,76.37
2018-01-29T12:06:43.168Z,76.18
2018-01-29T12:07:43.106Z,75.16
2018-01-29T12:08:43.842Z,74.65
2018-01-29T12:09:43.105Z,74.98
2018-01-29T12:10:43.093Z,74.59
2018-01-29T12:11:42.996Z,73.39
2018-01-29T12:12:43.006Z,73.54
2018-01-29T12:13:42.938Z,73.44
2018-01-29T12:14:42.901Z,73.63
2018-01-29T12:15:42.878Z,73.10
2018-01-29T12:16:42.872Z,73.19
2018-01-29T12:17:42.821Z,72.72
2018-01-29T12:18:42.842Z,73.54
2018-01-29T12:19:42.766Z,73.96
2018-01-29T12:20:42.773Z,73.00
2018-01-29T12:21:42.711Z,73.29
2018-01-29T12:22:42.766Z,73.29
2018-01-29T12:23:42.653Z,73.73
2018-01-29T12:24:42.674Z,74.49
2018-01-29T12:25:42.595Z,74.88
2018-01-29T12:26:42.588Z,75.07
2018-01-29T12:27:42.536Z,75.13
2018-01-29T12:28:42.608Z,75.13
2018-01-29T12:29:42.487Z,75.22
2018-01-29T12:30:43.535Z,74.65
2018-01-29T12:31:42.423Z,75.22
2018-01-29T12:32:42.425Z,75.13
2018-01-29T12:33:42.365Z,74.84
2018-01-29T12:34:42.437Z,74.93
2018-01-29T12:35:42.324Z,75.70
2018-01-29T12:36:42.350Z,75.42
2018-01-29T12:37:42.250Z,74.84
2018-01-29T12:38:42.257Z,74.49
2018-01-29T12:39:42.188Z,73.92
2018-01-29T12:40:42.299Z,73.73
2018-01-29T12:41:42.137Z,73.39
2018-01-29T12:42:42.185Z,73.54
2018-01-29T12:43:42.085Z,73.73
2018-01-29T12:44:42.051Z,74.11
2018-01-29T12:45:42.154Z,74.46
2018-01-29T12:46:41.990Z,74.65
2018-01-29T12:47:42.013Z,75.13
2018-01-29T12:48:41.982Z,74.55
2018-01-29T12:49:41.929Z,74.74
2018-01-29T12:50:41.880Z,74.84
2018-01-29T12:51:41.937Z,74.74
2018-01-29T12:52:41.815Z,74.65
2018-01-29T12:53:41.789Z,74.65
2018-01-29T12:54:41.787Z,74.46
2018-01-29T12:55:41.759Z,74.55
2018-01-29T12:56:41.701Z,75.03
2018-01-29T12:57:41.774Z,74.84
2018-01-29T12:58:41.645Z,74.84
2018-01-29T12:59:41.684Z,74.84
2018-01-29T13:00:41.600Z,73.54
2018-01-29T13:01:41.562Z,72.05
2018-01-29T13:02:41.522Z,71.86
2018-01-29T13:03:41.608Z,72.39
2018-01-29T13:04:41.468Z,72.87
2018-01-29T13:05:41.518Z,73.98
2018-01-29T13:06:41.448Z,74.37
2018-01-29T13:07:41.435Z,73.73
2018-01-29T13:08:41.356Z,72.68
2018-01-29T13:09:41.353Z,72.97
2018-01-29T13:10:41.296Z,73.98